Ave Maria, Florida
Current Conditions -  °F | °C
As of 9:15 PM on Thursday 20 Nov 2014 (Local Time) from KIMM Reporting Station
Broken Clouds Broken Clouds  
Wind Chill: 63°   Ceiling: 12000
Heat Index: 63°   Visibility: 10mi
Dew Point: 57°   Wind: 14mph
Humidity: 82%   Direction: 40°NE
Pressure: 30.19"   Gusts: NA
Location:  26.4288°N, 81.4387°W
Report Text: KIMM 210215Z AUTO 04012KT 10SM BKN120 17/14 A3019 RMK A01 P000
Loading
Personal Weather Stations






























Interactive Weather Map New forecast layout! Learn more

10-Day Weather Forecast

Advertisements
Track Severe Weather on mobile